createdAt,value
2023-04-27T00:01:13.243Z,98775.47
2023-04-27T00:03:42.153Z,98773.44
2023-04-27T00:06:10.035Z,98769.94
2023-04-27T00:08:37.573Z,98772.63
2023-04-27T00:11:04.905Z,98769.31
2023-04-27T00:13:31.928Z,98775.88
2023-04-27T00:16:03.759Z,98773.22
2023-04-27T00:18:32.474Z,98785.56
2023-04-27T00:21:00.515Z,98777.13
2023-04-27T00:23:28.146Z,98785.78
2023-04-27T00:25:55.197Z,98782.47
2023-04-27T00:28:22.218Z,98782.25
2023-04-27T00:30:49.333Z,98776.69
2023-04-27T00:33:17.361Z,98783.28
2023-04-27T00:35:44.474Z,98786.53
2023-04-27T00:38:11.849Z,98777.50
2023-04-27T00:40:39.719Z,98786.53
2023-04-27T00:43:07.074Z,98774.56
2023-04-27T00:45:42.980Z,98776.25
2023-04-27T00:48:13.767Z,98772.50
2023-04-27T00:50:41.485Z,98773.56
2023-04-27T00:53:08.795Z,98772.94
2023-04-27T00:55:36.034Z,98776.00
2023-04-27T00:58:03.272Z,98770.03
2023-04-27T01:00:31.044Z,98775.22
2023-04-27T01:03:01.525Z,98777.09
2023-04-27T01:05:30.152Z,98768.47
2023-04-27T01:07:58.470Z,98777.72
2023-04-27T01:10:27.716Z,98779.97
2023-04-27T01:12:54.970Z,98784.50
2023-04-27T01:15:22.153Z,98782.81
2023-04-27T01:17:49.199Z,98780.34
2023-04-27T01:20:16.256Z,98778.69
2023-04-27T01:22:43.768Z,98775.41
2023-04-27T01:25:10.982Z,98778.06
2023-04-27T01:27:38.083Z,98772.13
2023-04-27T01:30:06.559Z,98770.47
2023-04-27T01:32:33.657Z,98781.00
2023-04-27T01:35:00.811Z,98779.34
2023-04-27T01:37:27.900Z,98776.25
2023-04-27T01:39:55.002Z,98777.28
2023-04-27T01:42:22.035Z,98770.88
2023-04-27T01:44:49.452Z,98773.41
2023-04-27T01:47:17.409Z,98773.41
2023-04-27T01:49:44.858Z,98768.47
2023-04-27T01:52:11.956Z,98770.75
2023-04-27T01:54:39.275Z,98774.25
2023-04-27T01:57:07.081Z,98770.13
2023-04-27T01:59:34.425Z,98778.41
2023-04-27T02:02:02.146Z,98783.75
2023-04-27T02:04:30.395Z,98786.66
2023-04-27T02:06:58.431Z,98794.69
2023-04-27T02:09:25.551Z,98798.59
2023-04-27T02:11:52.653Z,98797.16
2023-04-27T02:14:19.801Z,98801.91
2023-04-27T02:17:07.352Z,98799.00
2023-04-27T02:19:34.470Z,98802.50
2023-04-27T02:22:01.898Z,98808.03
2023-04-27T02:24:29.058Z,98812.13
2023-04-27T02:26:56.132Z,98805.91
2023-04-27T02:29:23.967Z,98808.34
2023-04-27T02:31:51.625Z,98809.13
2023-04-27T02:34:18.720Z,98813.88
2023-04-27T02:36:45.839Z,98812.41
2023-04-27T02:39:13.212Z,98813.59
2023-04-27T02:41:40.629Z,98809.47
2023-04-27T02:44:08.592Z,98808.00
2023-04-27T02:46:35.813Z,98817.69
2023-04-27T02:49:03.014Z,98821.59
2023-04-27T02:51:30.255Z,98810.44
2023-04-27T02:53:57.404Z,98826.66
2023-04-27T02:56:24.476Z,98841.50
2023-04-27T02:58:52.706Z,98832.19
2023-04-27T03:01:19.889Z,98837.38
2023-04-27T03:03:48.224Z,98838.13
2023-04-27T03:06:15.583Z,98843.06
2023-04-27T03:08:42.682Z,98842.66
2023-04-27T03:11:09.803Z,98844.78
2023-04-27T03:13:42.198Z,98854.44
2023-04-27T03:16:12.971Z,98852.63
2023-04-27T03:18:40.694Z,98845.03
2023-04-27T03:21:09.037Z,98853.94
2023-04-27T03:23:36.537Z,98846.94
2023-04-27T03:26:11.059Z,98859.34
2023-04-27T03:28:38.728Z,98864.25
2023-04-27T03:31:11.189Z,98866.06
2023-04-27T03:33:39.360Z,98882.44
2023-04-27T03:36:07.774Z,98869.75
2023-04-27T03:38:35.781Z,98863.09
2023-04-27T03:41:03.419Z,98868.41
2023-04-27T03:43:30.761Z,98867.44
2023-04-27T03:45:57.929Z,98866.03
2023-04-27T03:48:25.245Z,98874.97
2023-04-27T03:50:55.040Z,98876.16
2023-04-27T03:53:22.160Z,98868.63
2023-04-27T03:55:50.317Z,98873.91
2023-04-27T03:58:20.098Z,98867.38
2023-04-27T04:01:06.667Z,98876.44
2023-04-27T04:03:34.074Z,98871.72
2023-04-27T04:06:03.747Z,98875.78
2023-04-27T04:08:33.014Z,98880.63
2023-04-27T04:11:01.259Z,98882.72
2023-04-27T04:13:29.949Z,98891.50
2023-04-27T04:16:06.189Z,98883.25
2023-04-27T04:18:34.399Z,98881.13
2023-04-27T04:21:01.796Z,98890.41
2023-04-27T04:23:29.079Z,98895.47
2023-04-27T04:25:56.525Z,98896.94
2023-04-27T04:28:25.672Z,98894.72
2023-04-27T04:30:53.116Z,98895.31
2023-04-27T04:33:20.414Z,98895.09
2023-04-27T04:35:47.908Z,98897.25
2023-04-27T04:38:15.222Z,98899.97
2023-04-27T04:40:45.282Z,98905.50
2023-04-27T04:43:13.603Z,98896.84
2023-04-27T04:45:42.847Z,98905.34
2023-04-27T04:48:14.956Z,98895.31
2023-04-27T04:50:42.262Z,98895.16
2023-04-27T04:53:09.360Z,98899.19
2023-04-27T04:55:36.544Z,98904.66
2023-04-27T04:58:04.377Z,98900.13
2023-04-27T05:00:31.814Z,98906.22
2023-04-27T05:03:01.711Z,98905.81
2023-04-27T05:05:29.204Z,98902.72
2023-04-27T05:07:56.262Z,98907.16
2023-04-27T05:10:23.386Z,98899.22
2023-04-27T05:12:50.541Z,98907.19
2023-04-27T05:15:18.128Z,98910.25
2023-04-27T05:17:45.113Z,98905.22
2023-04-27T05:20:12.390Z,98905.66
2023-04-27T05:22:39.431Z,98912.00
2023-04-27T05:25:06.769Z,98921.69
2023-04-27T05:27:33.884Z,98914.84
2023-04-27T05:30:00.926Z,98917.13
2023-04-27T05:32:27.965Z,98917.66
2023-04-27T05:34:55.170Z,98925.16
2023-04-27T05:37:22.273Z,98924.28
2023-04-27T05:39:49.345Z,98921.41
2023-04-27T05:42:16.605Z,98909.44
2023-04-27T05:44:44.108Z,98909.91
2023-04-27T05:47:11.320Z,98913.53
2023-04-27T05:49:38.610Z,98915.00
2023-04-27T05:52:05.700Z,98910.16
2023-04-27T05:54:32.846Z,98916.25
2023-04-27T05:56:59.853Z,98914.34
2023-04-27T05:59:27.687Z,98915.31
2023-04-27T06:01:54.804Z,98914.09
2023-04-27T06:04:22.104Z,98916.72
2023-04-27T06:06:49.460Z,98921.88
2023-04-27T06:09:16.531Z,98913.56
2023-04-27T06:11:43.895Z,98927.34
2023-04-27T06:14:11.211Z,98918.38
2023-04-27T06:16:38.314Z,98923.69
2023-04-27T06:19:05.376Z,98914.97
2023-04-27T06:21:33.852Z,98920.09
2023-04-27T06:24:01.478Z,98921.53
2023-04-27T06:26:28.767Z,98922.56
2023-04-27T06:28:56.364Z,98925.22
2023-04-27T06:31:23.583Z,98921.78
2023-04-27T06:33:50.916Z,98922.22
2023-04-27T06:36:18.185Z,98919.03
2023-04-27T06:38:45.319Z,98929.19
2023-04-27T06:41:12.555Z,98938.44
2023-04-27T06:43:39.631Z,98928.28
2023-04-27T06:46:07.090Z,98927.66
2023-04-27T06:48:34.239Z,98928.16
2023-04-27T06:51:01.507Z,98930.72
2023-04-27T06:53:28.611Z,98931.72
2023-04-27T06:55:55.701Z,98931.66
2023-04-27T06:58:22.882Z,98933.22
2023-04-27T07:00:50.053Z,98932.16
2023-04-27T07:03:17.434Z,98941.38
2023-04-27T07:05:44.761Z,98936.66
2023-04-27T07:08:13.081Z,98941.59
2023-04-27T07:10:40.718Z,98938.72
2023-04-27T07:13:09.189Z,98935.53
2023-04-27T07:15:36.935Z,98935.44
2023-04-27T07:18:04.261Z,98933.16
2023-04-27T07:20:32.058Z,98925.75
2023-04-27T07:23:05.174Z,98930.47
2023-04-27T07:25:33.257Z,98929.81
2023-04-27T07:28:00.339Z,98935.59
2023-04-27T07:30:30.998Z,98937.91
2023-04-27T07:32:58.383Z,98924.41
2023-04-27T07:35:25.667Z,98937.41
2023-04-27T07:37:52.900Z,98932.22
2023-04-27T07:40:19.907Z,98935.06
2023-04-27T07:42:47.374Z,98938.09
2023-04-27T07:45:14.472Z,98927.50
2023-04-27T07:47:42.611Z,98944.16
2023-04-27T07:50:10.811Z,98945.97
2023-04-27T07:52:37.893Z,98937.31
2023-04-27T07:55:05.342Z,98935.91
2023-04-27T07:57:32.503Z,98937.25
2023-04-27T07:59:59.534Z,98934.69
2023-04-27T08:02:34.863Z,98952.69
2023-04-27T08:05:03.116Z,98937.97
2023-04-27T08:07:32.696Z,98944.09
2023-04-27T08:09:59.796Z,98940.81
2023-04-27T08:12:27.118Z,98940.91
2023-04-27T08:14:54.201Z,98936.63
2023-04-27T08:17:24.151Z,98948.09
2023-04-27T08:19:51.476Z,98947.38
2023-04-27T08:22:18.731Z,98946.88
2023-04-27T08:24:45.785Z,98949.16
2023-04-27T08:27:12.954Z,98946.66
2023-04-27T08:29:47.309Z,98941.38
2023-04-27T08:32:15.415Z,98941.97
2023-04-27T08:34:42.768Z,98928.38
2023-04-27T08:37:09.773Z,98943.84
2023-04-27T08:39:36.842Z,98933.94
2023-04-27T08:42:14.061Z,98929.31
2023-04-27T08:44:42.442Z,98937.66
2023-04-27T08:47:10.312Z,98923.81
2023-04-27T08:49:41.926Z,98933.16
2023-04-27T08:52:14.551Z,98931.00
2023-04-27T08:54:41.965Z,98935.69
2023-04-27T08:57:13.901Z,98934.03
2023-04-27T08:59:41.856Z,98939.91
2023-04-27T09:02:21.985Z,98944.81
2023-04-27T09:04:49.316Z,98941.41
2023-04-27T09:07:18.371Z,98937.19
2023-04-27T09:09:46.073Z,98937.06
2023-04-27T09:12:17.980Z,98939.09
2023-04-27T09:14:57.052Z,98933.28
2023-04-27T09:17:30.895Z,98935.44
2023-04-27T09:20:13.508Z,98928.38
2023-04-27T09:22:58.742Z,98931.94
2023-04-27T09:25:32.121Z,98933.50
2023-04-27T09:28:00.908Z,98930.16
2023-04-27T09:30:29.310Z,98938.34
2023-04-27T09:33:02.046Z,98926.25
2023-04-27T09:35:33.969Z,98928.09
2023-04-27T09:38:01.790Z,98918.28
2023-04-27T09:40:31.363Z,98923.00
2023-04-27T09:43:03.910Z,98921.09
2023-04-27T09:45:33.545Z,98925.63
2023-04-27T09:48:01.945Z,98922.03
2023-04-27T09:50:29.139Z,98930.72
2023-04-27T09:52:57.234Z,98931.91
2023-04-27T09:55:39.688Z,98937.66
2023-04-27T09:58:20.795Z,98933.75
2023-04-27T10:00:59.483Z,98939.59
2023-04-27T10:03:47.623Z,98936.97
2023-04-27T10:06:45.842Z,98939.47
2023-04-27T10:09:13.343Z,98944.09
2023-04-27T10:11:42.245Z,98924.00
2023-04-27T10:14:11.278Z,98939.63
2023-04-27T10:16:47.038Z,98934.41
2023-04-27T10:19:14.802Z,98931.16
2023-04-27T10:22:02.321Z,98934.25
2023-04-27T10:24:36.443Z,98929.75
2023-04-27T10:27:05.919Z,98930.13
2023-04-27T10:29:43.409Z,98937.63
2023-04-27T10:32:31.011Z,98934.88
2023-04-27T10:35:09.086Z,98939.56
2023-04-27T10:37:43.697Z,98934.53
2023-04-27T10:40:17.951Z,98928.22
2023-04-27T10:42:48.329Z,98936.06
2023-04-27T10:45:30.294Z,98933.41
2023-04-27T10:48:00.711Z,98935.19
2023-04-27T10:50:28.029Z,98934.16
2023-04-27T10:52:55.126Z,98939.19
2023-04-27T10:55:23.359Z,98930.22
2023-04-27T10:57:52.256Z,98933.22
2023-04-27T11:00:28.594Z,98956.94
2023-04-27T11:02:57.695Z,98959.66
2023-04-27T11:05:30.122Z,98965.41
2023-04-27T11:08:08.491Z,98972.22
2023-04-27T11:10:38.559Z,98979.03
2023-04-27T11:13:10.764Z,98980.91
2023-04-27T11:15:45.124Z,98980.13
2023-04-27T11:18:12.792Z,98981.19
2023-04-27T11:20:39.924Z,98982.81
2023-04-27T11:23:07.977Z,98973.56
2023-04-27T11:25:35.557Z,98980.13
2023-04-27T11:28:02.671Z,98975.50
2023-04-27T11:30:30.091Z,98985.03
2023-04-27T11:32:57.340Z,98977.41
2023-04-27T11:35:34.749Z,98974.66
2023-04-27T11:38:02.489Z,98972.47
2023-04-27T11:40:29.722Z,98969.16
2023-04-27T11:43:03.327Z,98963.44
2023-04-27T11:45:30.663Z,98970.28
2023-04-27T11:48:01.358Z,98969.22
2023-04-27T11:50:28.908Z,98968.69
2023-04-27T11:53:01.303Z,98956.13
2023-04-27T11:55:28.891Z,98965.88
2023-04-27T11:57:58.622Z,98952.44
2023-04-27T12:00:26.004Z,98951.66
2023-04-27T12:02:53.241Z,98945.38
2023-04-27T12:05:21.336Z,98950.00
2023-04-27T12:07:48.622Z,98942.94
2023-04-27T12:10:15.927Z,98947.72
2023-04-27T12:12:43.017Z,98948.13
2023-04-27T12:15:11.157Z,98950.28
2023-04-27T12:17:39.473Z,98948.09
2023-04-27T12:20:07.162Z,98944.78
2023-04-27T12:22:35.392Z,98941.28
2023-04-27T12:25:02.426Z,98942.66
2023-04-27T12:27:32.413Z,98938.88
2023-04-27T12:30:00.657Z,98946.00
2023-04-27T12:32:28.246Z,98942.00
2023-04-27T12:34:55.324Z,98940.66
2023-04-27T12:37:23.534Z,98929.53
2023-04-27T12:39:52.078Z,98921.09
2023-04-27T12:42:23.868Z,98927.63
2023-04-27T12:44:54.285Z,98917.00
2023-04-27T12:47:45.974Z,98929.78
2023-04-27T12:50:10.116Z,98922.94
2023-04-27T12:52:37.597Z,98916.09
2023-04-27T12:55:06.275Z,98915.09
2023-04-27T12:57:33.616Z,98916.50
2023-04-27T13:00:02.144Z,98902.38
2023-04-27T13:02:32.154Z,98908.09
2023-04-27T13:04:59.629Z,98919.00
2023-04-27T13:07:26.803Z,98908.41
2023-04-27T13:09:54.178Z,98910.28
2023-04-27T13:12:22.289Z,98918.97
2023-04-27T13:14:49.321Z,98918.44
2023-04-27T13:17:16.361Z,98918.97
2023-04-27T13:19:43.462Z,98916.19
2023-04-27T13:22:10.852Z,98903.91
2023-04-27T13:24:38.138Z,98911.81
2023-04-27T13:27:05.275Z,98909.63
2023-04-27T13:29:32.273Z,98913.72
2023-04-27T13:31:59.567Z,98916.69
2023-04-27T13:34:26.766Z,98919.97
2023-04-27T13:36:54.191Z,98919.13
2023-04-27T13:39:22.278Z,98926.47
2023-04-27T13:41:49.466Z,98928.91
2023-04-27T13:44:16.654Z,98915.31
2023-04-27T13:46:43.771Z,98918.34
2023-04-27T13:49:11.166Z,98910.75
2023-04-27T13:51:40.618Z,98917.84
2023-04-27T13:54:07.729Z,98923.81
2023-04-27T13:56:34.742Z,98911.88
2023-04-27T13:59:01.848Z,98923.28
2023-04-27T14:01:29.050Z,98922.19
2023-04-27T14:03:56.657Z,98920.81
2023-04-27T14:06:24.122Z,98922.16
2023-04-27T14:08:51.667Z,98923.50
2023-04-27T14:11:19.863Z,98921.88
2023-04-27T14:13:47.525Z,98916.19
2023-04-27T14:16:14.568Z,98926.25
2023-04-27T14:18:42.266Z,98919.16
2023-04-27T14:21:09.316Z,98913.41
2023-04-27T14:23:36.693Z,98921.84
2023-04-27T14:26:05.193Z,98921.47
2023-04-27T14:28:32.301Z,98920.91
2023-04-27T14:30:59.381Z,98925.25
2023-04-27T14:33:26.522Z,98920.91
2023-04-27T14:35:54.585Z,98925.25
2023-04-27T14:38:22.414Z,98914.88
2023-04-27T14:40:49.488Z,98933.25
2023-04-27T14:43:18.104Z,98923.44
2023-04-27T14:45:52.734Z,98928.88
2023-04-27T14:48:22.670Z,98928.84
2023-04-27T14:50:49.748Z,98926.41
2023-04-27T14:53:16.775Z,98930.75
2023-04-27T14:55:45.935Z,98922.25
2023-04-27T14:58:13.234Z,98927.69
2023-04-27T15:00:40.303Z,98918.97
2023-04-27T15:03:07.759Z,98916.25
2023-04-27T15:05:35.001Z,98924.09
2023-04-27T15:08:02.249Z,98925.47
2023-04-27T15:10:29.376Z,98914.34
2023-04-27T15:12:56.472Z,98921.09
2023-04-27T15:15:23.697Z,98926.00
2023-04-27T15:17:50.755Z,98921.59
2023-04-27T15:20:18.053Z,98913.84
2023-04-27T15:22:45.058Z,98921.25
2023-04-27T15:25:12.349Z,98916.56
2023-04-27T15:27:39.439Z,98913.31
2023-04-27T15:30:07.517Z,98912.69
2023-04-27T15:32:34.615Z,98919.78
2023-04-27T15:35:01.798Z,98923.00
2023-04-27T15:37:34.780Z,98918.31
2023-04-27T15:40:03.727Z,98923.97
2023-04-27T15:42:31.073Z,98925.56
2023-04-27T15:44:58.102Z,98931.22
2023-04-27T15:47:25.187Z,98929.03
2023-04-27T15:49:57.436Z,98931.75
2023-04-27T15:52:25.728Z,98938.25
2023-04-27T15:54:52.708Z,98933.91
2023-04-27T15:57:19.875Z,98936.31
2023-04-27T15:59:47.018Z,98937.38
2023-04-27T16:02:14.115Z,98937.88
2023-04-27T16:04:41.392Z,98942.50
2023-04-27T16:07:08.430Z,98944.63
2023-04-27T16:09:35.660Z,98941.63
2023-04-27T16:12:04.053Z,98942.13
2023-04-27T16:14:31.192Z,98937.72
2023-04-27T16:17:02.333Z,98940.94
2023-04-27T16:19:29.446Z,98944.13
2023-04-27T16:21:56.520Z,98936.75
2023-04-27T16:24:25.703Z,98939.72
2023-04-27T16:26:52.889Z,98941.78
2023-04-27T16:29:20.009Z,98943.13
2023-04-27T16:31:50.330Z,98947.66
2023-04-27T16:34:17.603Z,98946.47
2023-04-27T16:36:44.965Z,98942.34
2023-04-27T16:39:12.106Z,98950.69
2023-04-27T16:41:39.265Z,98955.56
2023-04-27T16:44:06.622Z,98957.38
2023-04-27T16:46:38.458Z,98952.16
2023-04-27T16:49:06.221Z,98961.34
2023-04-27T16:51:33.949Z,98961.28
2023-04-27T16:54:01.152Z,98962.81
2023-04-27T16:56:36.792Z,98966.03
2023-04-27T16:59:07.758Z,98969.28
2023-04-27T17:01:34.815Z,98968.38
2023-04-27T17:04:02.566Z,98962.63
2023-04-27T17:06:30.270Z,98969.91
2023-04-27T17:08:58.097Z,98973.13
2023-04-27T17:11:25.259Z,98977.16
2023-04-27T17:13:52.492Z,98982.00
2023-04-27T17:16:20.111Z,98976.50
2023-04-27T17:18:47.788Z,98991.09
2023-04-27T17:21:15.000Z,98983.72
2023-04-27T17:23:42.077Z,98985.53
2023-04-27T17:26:10.048Z,98984.38
2023-04-27T17:28:37.223Z,98981.09
2023-04-27T17:31:04.431Z,98988.66
2023-04-27T17:33:31.566Z,98987.50
2023-04-27T17:35:58.797Z,98990.44
2023-04-27T17:38:28.790Z,98994.94
2023-04-27T17:40:57.720Z,98986.13
2023-04-27T17:43:24.792Z,98989.91
2023-04-27T17:45:52.025Z,98991.22
2023-04-27T17:48:19.137Z,98985.47
2023-04-27T17:50:46.549Z,98989.72
2023-04-27T17:53:17.502Z,98989.38
2023-04-27T17:55:45.635Z,98983.66
2023-04-27T17:58:12.835Z,98982.03
2023-04-27T18:00:42.294Z,98974.28
2023-04-27T18:03:09.734Z,98978.56
2023-04-27T18:05:37.269Z,98976.88
2023-04-27T18:08:04.384Z,98986.06
2023-04-27T18:10:31.502Z,98976.22
2023-04-27T18:12:58.654Z,98978.00
2023-04-27T18:15:25.853Z,98979.69
2023-04-27T18:17:52.990Z,98977.69
2023-04-27T18:20:22.954Z,98976.06
2023-04-27T18:22:52.753Z,98973.00
2023-04-27T18:25:20.070Z,98977.00
2023-04-27T18:27:50.976Z,98981.00
2023-04-27T18:30:18.315Z,98976.34
2023-04-27T18:32:45.569Z,98984.94
2023-04-27T18:35:12.725Z,98975.97
2023-04-27T18:37:39.781Z,98981.03
2023-04-27T18:40:07.759Z,98970.72
2023-04-27T18:42:35.014Z,98974.50
2023-04-27T18:45:02.363Z,98971.19
2023-04-27T18:47:32.221Z,98973.56
2023-04-27T18:49:59.417Z,98975.44
2023-04-27T18:52:26.606Z,98975.34
2023-04-27T18:54:53.801Z,98981.81
2023-04-27T18:57:21.164Z,98976.28
2023-04-27T18:59:48.246Z,98973.84
2023-04-27T19:02:15.542Z,98974.03
2023-04-27T19:04:45.588Z,98970.31
2023-04-27T19:07:25.525Z,98969.47
2023-04-27T19:09:58.311Z,98964.53
2023-04-27T19:12:25.683Z,98963.13
2023-04-27T19:14:52.723Z,98963.94
2023-04-27T19:17:20.032Z,98959.84
2023-04-27T19:19:48.495Z,98957.97
2023-04-27T19:22:15.643Z,98956.56
2023-04-27T19:24:42.682Z,98963.03
2023-04-27T19:27:11.710Z,98957.88
2023-04-27T19:29:53.714Z,98953.75
2023-04-27T19:32:21.978Z,98958.56
2023-04-27T19:34:49.683Z,98953.06
2023-04-27T19:37:17.031Z,98958.94
2023-04-27T19:39:44.861Z,98958.84
2023-04-27T19:42:14.156Z,98965.28
2023-04-27T19:44:41.972Z,98953.56
2023-04-27T19:47:11.980Z,98961.41
2023-04-27T19:49:39.541Z,98951.34
2023-04-27T19:52:07.664Z,98953.19
2023-04-27T19:54:38.310Z,98966.13
2023-04-27T19:57:05.751Z,98965.53
2023-04-27T19:59:32.792Z,98967.53
2023-04-27T20:01:59.894Z,98967.53
2023-04-27T20:04:27.501Z,98967.41
2023-04-27T20:06:54.789Z,98971.78
2023-04-27T20:09:21.816Z,98970.00
2023-04-27T20:11:49.120Z,98963.66
2023-04-27T20:14:16.406Z,98972.81
2023-04-27T20:16:43.920Z,98971.63
2023-04-27T20:19:11.040Z,98970.47
2023-04-27T20:21:38.597Z,98965.28
2023-04-27T20:24:05.924Z,98968.00
2023-04-27T20:26:33.204Z,98963.88
2023-04-27T20:29:00.366Z,98966.22
2023-04-27T20:31:27.692Z,98958.03
2023-04-27T20:33:54.869Z,98965.38
2023-04-27T20:36:23.298Z,98965.38
2023-04-27T20:38:50.652Z,98963.63
2023-04-27T20:41:18.043Z,98972.59
2023-04-27T20:43:45.662Z,98960.44
2023-04-27T20:46:13.398Z,98959.00
2023-04-27T20:48:40.644Z,98955.34
2023-04-27T20:51:07.869Z,98954.19
2023-04-27T20:53:35.182Z,98960.50
2023-04-27T20:56:02.567Z,98955.09
2023-04-27T20:58:29.834Z,98952.50
2023-04-27T21:00:57.022Z,98957.41
2023-04-27T21:03:24.526Z,98951.16
2023-04-27T21:05:54.007Z,98953.03
2023-04-27T21:08:21.161Z,98963.81
2023-04-27T21:10:48.207Z,98962.59
2023-04-27T21:13:15.350Z,98968.00
2023-04-27T21:15:42.293Z,98963.06
2023-04-27T21:18:15.968Z,98962.94
2023-04-27T21:20:46.474Z,98957.16
2023-04-27T21:23:14.933Z,98957.75
2023-04-27T21:25:46.704Z,98958.81
2023-04-27T21:28:14.508Z,98948.88
2023-04-27T21:30:41.768Z,98943.94
2023-04-27T21:33:08.989Z,98945.44
2023-04-27T21:35:36.373Z,98944.22
2023-04-27T21:38:03.435Z,98937.66
2023-04-27T21:40:30.548Z,98939.75
2023-04-27T21:42:57.793Z,98926.53
2023-04-27T21:45:24.902Z,98935.19
2023-04-27T21:47:52.123Z,98940.81
2023-04-27T21:50:19.156Z,98945.59
2023-04-27T21:52:46.141Z,98946.88
2023-04-27T21:55:13.269Z,98946.03
2023-04-27T21:57:40.360Z,98942.16
2023-04-27T22:00:13.688Z,98939.94
2023-04-27T22:02:48.563Z,98940.38
2023-04-27T22:05:16.527Z,98934.84
2023-04-27T22:07:46.070Z,98932.59
2023-04-27T22:10:13.613Z,98944.78
2023-04-27T22:12:40.606Z,98946.06
2023-04-27T22:15:08.266Z,98942.19
2023-04-27T22:17:35.712Z,98947.56
2023-04-27T22:20:04.750Z,98938.88
2023-04-27T22:22:31.941Z,98938.50
2023-04-27T22:24:58.956Z,98935.41
2023-04-27T22:27:30.074Z,98941.41
2023-04-27T22:30:03.415Z,98942.22
2023-04-27T22:32:31.823Z,98938.13
2023-04-27T22:35:00.179Z,98945.13
2023-04-27T22:37:29.635Z,98937.69
2023-04-27T22:39:57.412Z,98943.09
2023-04-27T22:42:24.590Z,98935.41
2023-04-27T22:44:51.658Z,98935.88
2023-04-27T22:47:18.704Z,98945.00
2023-04-27T22:49:45.673Z,98938.56
2023-04-27T22:52:12.677Z,98937.75
2023-04-27T22:54:39.847Z,98940.19
2023-04-27T22:57:06.896Z,98942.06
2023-04-27T22:59:33.902Z,98936.13
2023-04-27T23:02:01.104Z,98947.47
2023-04-27T23:04:28.379Z,98940.88
2023-04-27T23:06:55.481Z,98944.84
2023-04-27T23:09:22.739Z,98939.47
2023-04-27T23:11:50.973Z,98944.84
2023-04-27T23:14:18.357Z,98942.38
2023-04-27T23:16:46.571Z,98946.94
2023-04-27T23:19:13.990Z,98941.53
2023-04-27T23:21:41.308Z,98942.38
2023-04-27T23:24:08.418Z,98944.84
2023-04-27T23:26:35.484Z,98929.13
2023-04-27T23:29:02.931Z,98936.16
2023-04-27T23:31:30.047Z,98932.88
2023-04-27T23:33:57.159Z,98939.09
2023-04-27T23:36:24.253Z,98939.28
2023-04-27T23:38:51.470Z,98942.44
2023-04-27T23:41:18.601Z,98939.38
2023-04-27T23:43:45.691Z,98947.75
2023-04-27T23:46:12.774Z,98940.78
2023-04-27T23:48:39.798Z,98940.19
2023-04-27T23:51:06.821Z,98939.59
2023-04-27T23:53:33.986Z,98948.91
2023-04-27T23:56:01.115Z,98949.81
2023-04-27T23:58:28.280Z,98948.38
